Terminal Aerodrome Forecast
Issued by NWS Corpus Christi, TX

Home | Current Version | Previous Version | Text Only | Print | Product List | Glossary On
Versions: 1 2 3 4 5 6 7 8 9 10 11 12 13 14 15
000
FTUS44 KCRP 022335
TAFVCT
TAF
KVCT 022335Z 0300/0324 08014G20KT P6SM VCSH SCT019 OVC040
      TEMPO 0300/0303 4SM SHRA BR BKN019 OVC030
     FM030300 09013KT 6SM -SHRA BR BKN015 OVC040
      TEMPO 0303/0307 4SM TSRA BR OVC012CB
     FM030900 15010KT P6SM -RA OVC025
     FM031600 16014G18KT P6SM -SHRA BKN035 OVC150 PROB30 0317/0323
      VRB20G30KT 3SM TSRA BR OVC020CB=

USA.gov is the U.S. government's official web portal to all federal, state and local government web resources and services.